Cartama, Spain
Current Conditions -  °F | °C
As of 2:00 PM on Friday 24 Oct 2014 (Local Time) from LEMG Reporting Station
Clear Clear  
Wind Chill: 73°   Ceiling: Unl
Heat Index: 73°   Visibility: 6mi
Dew Point: 55°   Wind: 7mph
Humidity: 53%   Direction: 120°ESE
Pressure: 30.03"   Gusts: NA
Location:  36.71°N, 4.63°W
Report Text: LEMG 241200Z 12006KT 100V160 CAVOK 23/13 Q1017 NOSIG
Loading
Personal Weather Stations






























Interactive Weather Map New forecast layout! Learn more

10-Day Weather Forecast

Advertisements
Track Severe Weather on mobile